Time;durP1;ratioP1;P1;durP2;ratioP2;P2;SDS_P1;SDS_P2;PMS_P1;PMS_P2;Temp;Humidity;BMP_temperature;BMP_pressure;BME280_temperature;BME280_humidity;BME280_pressure;Samples;Min_cycle;Max_cycle;Signal;HPM_P1;HPM_P2
2023/07/18 00:00:14;;;;;;;5.38;2.35;;;;;;;13.61;100.00;101975.06;4937241;29;20034;-95
2023/07/18 00:02:42;;;;;;;4.50;2.00;;;;;;;13.47;100.00;101967.38;4937746;29;20062;-96
2023/07/18 00:05:07;;;;;;;8.43;2.50;;;;;;;13.59;100.00;101985.28;4935272;29;20291;-96
2023/07/18 00:07:34;;;;;;;6.38;2.03;;;;;;;13.60;100.00;101986.91;4936897;29;20047;-96
2023/07/18 00:09:59;;;;;;;5.93;2.45;;;;;;;13.64;100.00;102012.28;4938346;28;20036;-96
2023/07/18 00:12:25;;;;;;;7.90;2.60;;;;;;;13.34;100.00;101981.13;4955878;29;20510;-96
2023/07/18 00:14:50;;;;;;;5.37;2.60;;;;;;;13.53;100.00;102013.19;4957385;29;20315;-96
2023/07/18 00:17:16;;;;;;;8.33;2.60;;;;;;;13.34;100.00;101989.22;4953463;29;20030;-96
2023/07/18 00:19:41;;;;;;;6.57;2.27;;;;;;;13.40;100.00;102009.78;4950102;29;20443;-96
2023/07/18 00:22:07;;;;;;;5.40;2.60;;;;;;;13.23;100.00;102006.28;4941993;29;20511;-96
2023/07/18 00:24:33;;;;;;;6.13;2.75;;;;;;;13.26;100.00;102003.09;4960200;29;20012;-96
2023/07/18 00:26:59;;;;;;;6.47;2.60;;;;;;;13.33;100.00;102023.41;4938815;29;20024;-96
2023/07/18 00:29:25;;;;;;;4.50;2.60;;;;;;;13.17;100.00;102011.59;4939312;29;20423;-96
2023/07/18 00:31:50;;;;;;;5.80;2.90;;;;;;;13.26;100.00;102022.75;4940457;29;20184;-96
2023/07/18 00:34:16;;;;;;;6.27;3.13;;;;;;;13.02;100.00;101989.81;4940483;29;20024;-96
2023/07/18 00:36:44;;;;;;;8.73;4.68;;;;;;;13.10;100.00;102008.25;4941472;29;20024;-96
2023/07/18 00:39:10;;;;;;;11.00;4.85;;;;;;;12.84;100.00;101969.38;4940193;29;20035;-96
2023/07/18 00:41:35;;;;;;;11.47;5.40;;;;;;;13.07;100.00;102022.19;4940501;29;20379;-96
2023/07/18 00:44:01;;;;;;;8.63;5.00;;;;;;;13.04;100.00;102017.31;4939022;28;20031;-96
2023/07/18 00:46:27;;;;;;;8.57;4.80;;;;;;;12.99;100.00;102014.53;4938502;29;20032;-96
2023/07/18 00:48:53;;;;;;;9.03;3.93;;;;;;;12.98;100.00;102015.59;4939808;29;20046;-96
2023/07/18 00:51:18;;;;;;;6.25;3.55;;;;;;;12.94;100.00;102020.66;4939080;28;20483;-96
2023/07/18 00:53:44;;;;;;;5.63;3.30;;;;;;;12.95;100.00;102018.78;4939940;29;20376;-96
2023/07/18 00:56:10;;;;;;;6.00;3.30;;;;;;;12.61;100.00;101967.66;4940725;29;20027;-96
2023/07/18 00:58:35;;;;;;;8.00;3.07;;;;;;;12.76;100.00;101989.44;4940293;29;20028;-96
2023/07/18 01:01:02;;;;;;;6.40;3.22;;;;;;;12.83;100.00;102005.41;4939644;29;20058;-96
2023/07/18 01:03:29;;;;;;;7.18;3.40;;;;;;;12.81;100.00;102002.16;4939664;29;20111;-96
2023/07/18 01:05:54;;;;;;;7.47;3.05;;;;;;;12.84;100.00;102007.84;4939732;29;20539;-96
2023/07/18 01:08:20;;;;;;;6.10;3.20;;;;;;;12.64;100.00;101975.22;4940516;29;20035;-96
2023/07/18 01:10:45;;;;;;;5.57;2.85;;;;;;;12.66;100.00;101991.94;4940243;29;20039;-96
2023/07/18 01:13:13;;;;;;;6.90;3.10;;;;;;;12.68;100.00;102011.34;4939728;29;20048;-96
2023/07/18 01:15:38;;;;;;;6.57;3.35;;;;;;;12.66;100.00;102005.38;4937751;29;20111;-96
2023/07/18 01:22:23;;;;;;;5.28;3.13;;;;;;;12.44;100.00;101991.84;4904979;29;20068;-96
2023/07/18 01:24:52;;;;;;;7.68;3.22;;;;;;;12.42;100.00;101990.22;4896102;29;20031;-96
2023/07/18 01:27:17;;;;;;;6.85;3.25;;;;;;;12.29;100.00;101968.19;4960472;29;20024;-95
2023/07/18 01:29:43;;;;;;;7.80;3.03;;;;;;;12.39;100.00;101979.13;4959047;29;20066;-96
2023/07/18 01:32:08;;;;;;;5.43;2.83;;;;;;;12.19;100.00;101947.31;4954078;29;20027;-95
2023/07/18 01:34:34;;;;;;;5.47;3.20;;;;;;;12.36;100.00;101985.00;4951191;29;20283;-96
2023/07/18 01:36:59;;;;;;;7.15;3.08;;;;;;;12.22;100.00;101963.78;4945103;29;20118;-96
2023/07/18 01:39:26;;;;;;;6.67;3.20;;;;;;;12.33;100.00;101990.84;4958133;29;20035;-96
2023/07/18 01:41:51;;;;;;;5.20;3.05;;;;;;;12.33;100.00;101982.78;4942435;29;20028;-96
2023/07/18 01:44:17;;;;;;;6.03;3.00;;;;;;;12.38;100.00;101993.63;4951688;29;20042;-96
2023/07/18 01:46:42;;;;;;;7.90;3.33;;;;;;;12.39;100.00;101987.19;4955889;29;20051;-96
2023/07/18 01:49:08;;;;;;;5.93;3.00;;;;;;;12.32;100.00;101973.91;4942743;29;20028;-96
2023/07/18 01:51:34;;;;;;;5.17;2.70;;;;;;;12.28;100.00;101978.13;4943440;29;20050;-96
2023/07/18 01:53:59;;;;;;;5.33;2.80;;;;;;;12.32;100.00;101973.91;4939725;29;20295;-96
2023/07/18 01:56:25;;;;;;;8.90;3.20;;;;;;;12.26;100.00;101964.91;4941802;29;20031;-96
2023/07/18 01:58:56;;;;;;;9.65;2.90;;;;;;;12.19;100.00;101958.91;4938646;29;20500;-96
2023/07/18 02:01:21;;;;;;;5.90;2.92;;;;;;;12.23;100.00;101976.16;4939844;29;20035;-96
2023/07/18 02:03:46;;;;;;;5.20;2.80;;;;;;;12.23;100.00;101976.16;4938364;29;20038;-96
2023/07/18 02:06:12;;;;;;;5.07;3.00;;;;;;;12.15;100.00;101963.13;4940420;29;20067;-95
2023/07/18 02:08:37;;;;;;;9.05;3.15;;;;;;;12.13;100.00;101959.84;4943221;29;20074;-96
2023/07/18 02:11:03;;;;;;;6.23;3.10;;;;;;;12.17;100.00;101965.53;4943544;29;20453;-96
2023/07/18 02:13:29;;;;;;;5.83;3.20;;;;;;;12.15;100.00;101963.13;4942661;29;20032;-95
2023/07/18 02:15:55;;;;;;;7.93;3.05;;;;;;;12.09;100.00;101956.84;4945691;29;20024;-96
2023/07/18 02:18:20;;;;;;;6.80;3.13;;;;;;;12.12;100.00;101952.84;4945681;29;20038;-96
2023/07/18 02:20:46;;;;;;;7.53;3.00;;;;;;;11.99;100.00;101935.13;4944370;29;20031;-95
2023/07/18 02:23:16;;;;;;;5.17;2.90;;;;;;;12.16;100.00;101962.06;4940974;29;20032;-95
2023/07/18 02:25:41;;;;;;;7.20;3.00;;;;;;;12.13;100.00;101946.41;4945350;29;20035;-96
2023/07/18 02:28:07;;;;;;;6.07;3.17;;;;;;;12.16;100.00;101958.53;4948034;29;20428;-95
2023/07/18 02:30:33;;;;;;;6.72;3.30;;;;;;;12.09;100.00;101956.00;4945582;29;20027;-96
2023/07/18 02:32:58;;;;;;;5.00;2.97;;;;;;;11.93;100.00;101936.88;4944378;29;20036;-96
2023/07/18 02:35:24;;;;;;;5.07;3.00;;;;;;;11.91;100.00;101944.38;4951671;29;20038;-94
2023/07/18 02:37:49;;;;;;;5.47;2.70;;;;;;;12.04;100.00;101955.94;4955520;29;20543;-95
2023/07/18 02:40:17;;;;;;;6.33;3.10;;;;;;;12.02;100.00;101958.84;4957001;29;20091;-96
2023/07/18 02:42:42;;;;;;;5.25;3.05;;;;;;;11.90;100.00;101945.41;4952857;29;20023;-96
2023/07/18 02:45:08;;;;;;;6.20;3.03;;;;;;;11.96;100.00;101962.44;4955853;29;20035;-96
2023/07/18 02:47:34;;;;;;;5.55;3.00;;;;;;;11.95;100.00;101958.97;4958048;28;20044;-95
2023/07/18 02:49:59;;;;;;;4.83;3.03;;;;;;;11.94;100.00;101962.69;4961064;29;20111;-96
2023/07/18 02:52:24;;;;;;;5.97;2.97;;;;;;;11.88;100.00;101960.94;4960690;29;20015;-95
2023/07/18 02:54:50;;;;;;;4.20;2.60;;;;;;;11.82;100.00;101951.19;4956951;29;20047;-96
2023/07/18 02:57:15;;;;;;;4.87;2.80;;;;;;;11.81;100.00;101954.91;4957460;29;20020;-96
2023/07/18 02:59:41;;;;;;;5.15;3.35;;;;;;;11.73;100.00;101949.91;4957669;29;20027;-96
2023/07/18 03:02:06;;;;;;;6.00;3.00;;;;;;;11.73;100.00;101958.81;4956848;29;20027;-95
2023/07/18 03:04:33;;;;;;;4.67;3.00;;;;;;;11.70;100.00;101955.75;4960381;29;20020;-96
2023/07/18 03:07:00;;;;;;;6.38;2.65;;;;;;;11.65;100.00;101951.94;4958153;29;20039;-96
2023/07/18 03:09:27;;;;;;;7.10;3.40;;;;;;;11.60;100.00;101951.81;4956924;29;20036;-96
2023/07/18 03:12:10;;;;;;;4.43;2.92;;;;;;;11.55;100.00;101942.84;4957611;28;20027;-96
2023/07/18 03:14:36;;;;;;;4.50;2.78;;;;;;;11.52;100.00;101939.59;4957921;29;20038;-96
2023/07/18 03:17:01;;;;;;;8.10;3.00;;;;;;;11.53;100.00;101948.44;4958420;29;20031;-96
2023/07/18 03:19:26;;;;;;;6.60;2.97;;;;;;;11.43;100.00;101940.19;4959840;29;20022;-96
2023/07/18 03:21:52;;;;;;;5.68;2.83;;;;;;;11.48;100.00;101953.72;4959953;29;20043;-95
2023/07/18 03:24:17;;;;;;;5.13;2.53;;;;;;;11.44;100.00;101957.94;4958822;29;20032;-95
2023/07/18 03:26:43;;;;;;;5.93;2.80;;;;;;;11.43;100.00;101950.91;4958794;29;20071;-95
2023/07/18 03:29:09;;;;;;;7.40;2.60;;;;;;;11.31;100.00;101943.72;4958446;29;20051;-96
2023/07/18 03:31:34;;;;;;;5.95;2.53;;;;;;;11.35;100.00;101949.41;4957024;29;20030;-95
2023/07/18 03:34:00;;;;;;;4.18;2.53;;;;;;;11.27;100.00;101942.53;4954701;29;20114;-96
2023/07/18 03:36:27;;;;;;;4.27;2.33;;;;;;;11.28;100.00;101944.19;4950892;29;20035;-96
2023/07/18 03:38:52;;;;;;;5.47;2.50;;;;;;;11.24;100.00;101947.53;4950039;29;20075;-96
2023/07/18 03:41:19;;;;;;;3.17;2.20;;;;;;;11.18;100.00;101946.63;4953171;29;20464;-96
2023/07/18 03:43:44;;;;;;;4.18;2.28;;;;;;;11.12;100.00;101942.22;4953673;29;20032;-96
2023/07/18 03:46:10;;;;;;;5.87;2.30;;;;;;;11.14;100.00;101948.97;4955811;29;20027;-96
2023/07/18 03:48:37;;;;;;;3.45;2.17;;;;;;;11.17;100.00;101958.41;4959784;29;20031;-96
2023/07/18 03:51:05;;;;;;;5.55;2.38;;;;;;;11.15;100.00;101949.75;4959136;29;20039;-96
2023/07/18 03:53:31;;;;;;;5.17;2.30;;;;;;;11.16;100.00;101957.59;4960555;29;20036;-95
2023/07/18 03:56:06;;;;;;;5.07;2.23;;;;;;;11.18;100.00;101942.09;4957077;29;20275;-96
2023/07/18 03:58:33;;;;;;;5.80;2.35;;;;;;;11.13;100.00;101946.53;4956972;29;20036;-95
2023/07/18 04:01:10;;;;;;;5.25;2.20;;;;;;;11.08;100.00;101935.69;4956308;29;20107;-96
2023/07/18 04:03:37;;;;;;;4.57;2.10;;;;;;;11.12;100.00;101943.00;4957646;29;20032;-96
2023/07/18 04:06:02;;;;;;;4.22;2.20;;;;;;;11.11;100.00;101938.69;4961421;29;20111;-96
2023/07/18 04:08:28;;;;;;;3.63;2.13;;;;;;;11.14;100.00;101945.44;4961085;29;20019;-96
2023/07/18 04:10:56;;;;;;;4.50;1.80;;;;;;;11.14;100.00;101940.91;4957423;29;20506;-95
2023/07/18 04:13:21;;;;;;;4.25;2.33;;;;;;;11.16;100.00;101935.31;4957710;29;20032;-96
2023/07/18 04:15:47;;;;;;;3.73;2.20;;;;;;;11.15;100.00;101917.56;4962247;28;20050;-95
2023/07/18 04:18:12;;;;;;;3.63;2.07;;;;;;;11.20;100.00;101923.06;4965226;29;20020;-96
2023/07/18 04:20:38;;;;;;;4.38;2.20;;;;;;;11.28;100.00;101928.09;4963498;29;20075;-95
2023/07/18 04:23:03;;;;;;;6.33;2.10;;;;;;;11.34;100.00;101926.31;4961794;29;20028;-96
2023/07/18 04:25:55;;;;;;;6.13;2.20;;;;;;;11.40;100.00;101921.88;4965527;29;20016;-96
2023/07/18 04:28:20;;;;;;;4.10;2.17;;;;;;;11.43;100.00;101914.16;4958321;29;20134;-95
2023/07/18 04:30:45;;;;;;;4.10;2.07;;;;;;;11.47;100.00;101917.19;4960182;29;20023;-95
2023/07/18 04:33:12;;;;;;;3.43;2.00;;;;;;;11.43;100.00;101908.78;4961350;29;20189;-96
2023/07/18 04:35:38;;;;;;;6.18;2.25;;;;;;;11.45;100.00;101921.97;4957774;29;20031;-96
2023/07/18 04:38:03;;;;;;;5.55;2.08;;;;;;;11.37;100.00;101907.06;4956157;29;20626;-96
2023/07/18 04:40:29;;;;;;;4.47;2.30;;;;;;;11.54;100.00;101917.88;4934344;29;20070;-96
2023/07/18 04:42:54;;;;;;;5.20;2.15;;;;;;;11.61;100.00;101928.47;4951078;29;20036;-96
2023/07/18 04:45:19;;;;;;;4.37;1.93;;;;;;;11.67;100.00;101919.47;4951191;29;20122;-96
2023/07/18 04:47:45;;;;;;;4.83;2.00;;;;;;;11.78;100.00;101921.28;4954041;29;20024;-96
2023/07/18 04:50:10;;;;;;;5.07;2.20;;;;;;;11.88;100.00;101915.28;4958686;29;20031;-96
2023/07/18 04:52:36;;;;;;;4.47;2.10;;;;;;;11.94;100.00;101917.03;4960046;29;20435;-96
2023/07/18 04:55:02;;;;;;;5.05;1.95;;;;;;;12.09;100.00;101929.97;4959802;29;20019;-96
2023/07/18 04:57:28;;;;;;;4.45;2.08;;;;;;;12.12;100.00;101920.59;4955790;29;20023;-95
2023/07/18 04:59:53;;;;;;;4.13;1.83;;;;;;;12.16;100.00;101926.31;4950015;29;20028;-96
2023/07/18 05:02:19;;;;;;;3.20;1.80;;;;;;;12.73;100.00;101920.81;4947082;29;20034;-96
2023/07/18 05:04:44;;;;;;;5.13;1.60;;;;;;;14.15;100.00;101922.31;4946425;29;20028;-96
2023/07/18 05:07:10;;;;;;;3.30;1.43;;;;;;;15.48;100.00;101916.22;4946740;29;20038;-96
2023/07/18 05:09:35;;;;;;;4.40;1.80;;;;;;;16.64;98.36;101931.28;4946580;29;20280;-96
2023/07/18 05:12:00;;;;;;;8.20;1.60;;;;;;;17.65;92.87;101921.50;4946433;29;20061;-96
2023/07/18 05:14:26;;;;;;;6.90;1.33;;;;;;;18.48;86.81;101922.88;4948556;29;20089;-96
2023/07/18 05:16:51;;;;;;;10.23;1.40;;;;;;;19.07;79.63;101934.53;4955098;29;20007;-96
2023/07/18 05:19:17;;;;;;;7.10;1.42;;;;;;;19.45;77.55;101929.19;4959000;29;20043;-95
2023/07/18 05:21:43;;;;;;;3.80;1.33;;;;;;;19.87;72.68;101928.63;4959188;29;20032;-95
2023/07/18 05:24:10;;;;;;;4.30;1.57;;;;;;;20.16;72.16;101933.94;4952734;29;20067;-94
2023/07/18 05:26:36;;;;;;;3.80;1.50;;;;;;;20.43;68.37;101927.78;4942607;29;20038;-95
2023/07/18 05:29:01;;;;;;;5.47;1.43;;;;;;;20.69;65.91;101924.59;4946392;29;20063;-96
2023/07/18 05:31:26;;;;;;;4.33;1.37;;;;;;;20.81;65.60;101918.69;4929927;29;20064;-96
2023/07/18 05:33:52;;;;;;;4.17;1.50;;;;;;;21.17;63.64;101934.34;4949757;29;20082;-96
2023/07/18 05:36:21;;;;;;;4.93;1.55;;;;;;;21.20;62.77;101932.94;4945893;29;20032;-96
2023/07/18 05:38:46;;;;;;;4.60;1.50;;;;;;;21.46;60.51;101929.69;4952767;29;20095;-96
2023/07/18 05:41:13;;;;;;;6.50;1.40;;;;;;;21.76;59.85;101924.69;4960801;29;20026;-95
2023/07/18 05:43:38;;;;;;;5.17;1.63;;;;;;;21.90;58.57;101922.75;4952892;29;20067;-96
2023/07/18 05:46:03;;;;;;;2.63;1.50;;;;;;;22.08;57.80;101933.78;4957534;29;20008;-96
2023/07/18 05:48:29;;;;;;;5.13;1.27;;;;;;;22.20;56.12;101923.09;4959014;29;20460;-96
2023/07/18 05:50:55;;;;;;;3.85;1.70;;;;;;;22.19;56.74;101924.22;4957587;29;20071;-96
2023/07/18 05:53:21;;;;;;;2.60;1.40;;;;;;;22.06;56.43;101945.00;4958746;28;20031;-96
2023/07/18 05:55:47;;;;;;;4.53;1.53;;;;;;;21.73;55.59;101945.22;4957126;29;20294;-96
2023/07/18 05:58:12;;;;;;;4.03;1.30;;;;;;;21.22;59.06;101938.09;4954653;29;20030;-96
2023/07/18 06:00:39;;;;;;;8.50;1.70;;;;;;;20.61;60.56;101938.09;4955335;29;20020;-96
2023/07/18 06:03:04;;;;;;;4.53;1.58;;;;;;;20.23;63.24;101941.72;4957883;29;20091;-96
2023/07/18 06:05:30;;;;;;;3.10;1.60;;;;;;;19.94;64.87;101946.25;4957816;29;20082;-96
2023/07/18 06:07:55;;;;;;;5.63;1.40;;;;;;;19.62;67.20;101941.47;4956154;29;20028;-96
2023/07/18 06:17:56;;;;;;;3.72;1.50;;;;;;;18.42;73.74;101927.53;5348187;23;20039;-96
2023/07/18 06:20:22;;;;;;;5.00;1.57;;;;;;;18.09;74.05;101898.22;4959727;29;20100;-96
2023/07/18 06:22:49;;;;;;;4.47;1.40;;;;;;;17.93;74.59;101893.97;4959495;29;20291;-95
2023/07/18 06:25:15;;;;;;;5.50;1.58;;;;;;;17.95;76.89;101917.00;4957916;29;20038;-96
2023/07/18 06:27:48;;;;;;;4.45;1.33;;;;;;;17.64;77.22;101892.78;4956388;29;20105;-96
2023/07/18 06:30:14;;;;;;;7.53;1.40;;;;;;;17.78;79.39;101920.09;4953603;29;20030;-96
2023/07/18 06:32:44;;;;;;;4.50;1.30;;;;;;;17.86;79.08;101935.75;4958603;29;20051;-96
2023/07/18 06:35:12;;;;;;;3.50;1.52;;;;;;;17.65;79.45;101926.09;4954367;29;20023;-96
2023/07/18 06:37:40;;;;;;;4.18;1.33;;;;;;;17.53;80.24;101908.28;4934913;29;20044;-96
2023/07/18 06:40:06;;;;;;;3.20;1.40;;;;;;;17.46;80.15;101883.38;4956376;29;20028;-96
2023/07/18 06:42:36;;;;;;;4.65;1.50;;;;;;;17.32;78.16;101896.75;4954306;29;20054;-95
2023/07/18 06:45:03;;;;;;;3.43;1.00;;;;;;;17.50;80.07;101927.00;4958358;29;20036;-96
2023/07/18 06:47:31;;;;;;;2.77;1.20;;;;;;;17.69;79.77;101933.44;4956412;29;20284;-96
2023/07/18 06:49:57;;;;;;;5.07;1.15;;;;;;;17.54;79.42;101893.66;4958622;29;20027;-96
2023/07/18 06:52:23;;;;;;;6.03;1.50;;;;;;;17.68;79.58;101893.03;4959513;29;20075;-96
2023/07/18 06:54:49;;;;;;;2.85;1.35;;;;;;;17.95;80.32;101935.97;4958544;29;20050;-96
2023/07/18 06:57:18;;;;;;;2.57;1.30;;;;;;;18.04;81.20;101928.06;4956208;29;20019;-96
2023/07/18 06:59:45;;;;;;;2.42;1.20;;;;;;;17.85;76.18;101898.09;4941545;29;20030;-96
2023/07/18 07:02:11;;;;;;;2.92;1.08;;;;;;;17.98;75.52;101902.13;4958210;29;20026;-95
2023/07/18 07:04:41;;;;;;;3.85;1.20;;;;;;;18.20;77.15;101917.94;4956773;29;20039;-95
2023/07/18 07:07:27;;;;;;;6.68;1.50;;;;;;;18.03;76.33;101885.00;4958060;29;20067;-96
2023/07/18 07:09:54;;;;;;;7.82;1.40;;;;;;;18.21;78.01;101878.88;4958407;29;20020;-96
2023/07/18 07:12:19;;;;;;;5.03;1.17;;;;;;;18.42;78.16;101894.97;4955302;29;20024;-95
2023/07/18 07:14:46;;;;;;;2.97;1.17;;;;;;;18.45;74.63;101889.78;4950138;29;20076;-95
2023/07/18 07:17:12;;;;;;;3.85;1.10;;;;;;;18.43;71.51;101891.19;4950993;29;20051;-96
2023/07/18 07:19:39;;;;;;;2.65;1.00;;;;;;;18.65;72.45;101900.72;4953648;29;20118;-96
2023/07/18 07:22:05;;;;;;;3.35;1.05;;;;;;;18.77;70.71;101898.44;4947589;29;20045;-96
2023/07/18 07:24:30;;;;;;;3.33;1.10;;;;;;;18.96;72.50;101920.25;4946553;28;20040;-96
2023/07/18 07:26:57;;;;;;;3.13;1.23;;;;;;;18.94;69.96;101910.75;4947621;29;20023;-96
2023/07/18 07:29:25;;;;;;;5.38;1.00;;;;;;;19.19;69.50;101928.69;4934095;29;20032;-96
2023/07/18 07:31:51;;;;;;;3.43;1.40;;;;;;;19.15;70.79;101912.19;4949993;29;20083;-96
2023/07/18 07:34:18;;;;;;;4.57;1.27;;;;;;;19.19;70.85;101915.91;4951428;29;20331;-96
2023/07/18 07:36:43;;;;;;;3.95;1.50;;;;;;;19.34;70.50;101928.50;4935507;29;20063;-96
2023/07/18 07:39:09;;;;;;;4.53;1.63;;;;;;;19.46;69.46;101916.41;4951266;29;20027;-96
2023/07/18 07:41:34;;;;;;;1.83;1.20;;;;;;;19.46;66.89;101916.41;4951102;29;20038;-96
2023/07/18 07:44:00;;;;;;;4.50;1.67;;;;;;;19.21;67.82;101886.53;4949763;29;20051;-96
2023/07/18 07:46:25;;;;;;;4.78;1.58;;;;;;;19.15;67.04;101885.00;4948500;29;20039;-96
2023/07/18 07:48:51;;;;;;;3.07;1.20;;;;;;;19.61;69.96;101928.97;4950470;29;20040;-94
2023/07/18 07:51:16;;;;;;;3.43;1.00;;;;;;;19.61;66.85;101916.22;4948130;29;20016;-96
2023/07/18 07:53:43;;;;;;;2.63;0.90;;;;;;;19.54;65.33;101887.78;4958843;29;20031;-95
2023/07/18 07:56:09;;;;;;;3.80;1.20;;;;;;;19.87;64.34;101923.19;4958053;29;20031;-96
2023/07/18 07:58:36;;;;;;;3.15;0.93;;;;;;;19.79;59.92;101895.56;4958593;29;20016;-95
2023/07/18 08:01:02;;;;;;;2.10;0.98;;;;;;;19.90;61.44;101887.28;4958068;29;20015;-95
2023/07/18 08:03:27;;;;;;;3.83;0.88;;;;;;;20.15;62.66;101890.69;4958982;29;20020;-94
2023/07/18 08:05:53;;;;;;;7.07;1.10;;;;;;;20.33;61.58;101922.50;4958522;29;20645;-94
2023/07/18 08:08:21;;;;;;;3.53;1.00;;;;;;;20.37;61.99;101925.41;4942988;29;20108;-96
2023/07/18 08:10:47;;;;;;;3.83;1.00;;;;;;;20.48;61.58;101923.34;4940520;29;20024;-96
2023/07/18 08:13:16;;;;;;;2.03;1.10;;;;;;;20.67;61.31;101923.28;4938851;29;20028;-95
2023/07/18 08:15:42;;;;;;;2.38;1.00;;;;;;;20.80;60.31;101917.09;4938746;29;20423;-96
2023/07/18 08:18:10;;;;;;;2.77;0.97;;;;;;;20.64;59.63;101878.41;4938165;29;20063;-96
2023/07/18 08:20:36;;;;;;;2.22;0.90;;;;;;;20.95;56.59;101896.91;4956512;29;20015;-96
2023/07/18 08:23:02;;;;;;;3.35;0.88;;;;;;;21.11;55.08;101916.47;4937156;29;20020;-96
2023/07/18 08:25:27;;;;;;;1.97;0.80;;;;;;;21.13;53.14;101924.38;4941867;29;20008;-96
2023/07/18 08:27:53;;;;;;;2.35;0.85;;;;;;;21.32;53.81;101925.06;4953333;29;20038;-96
2023/07/18 08:30:19;;;;;;;2.30;0.80;;;;;;;21.36;51.76;101913.56;4937508;29;20024;-96
2023/07/18 08:32:45;;;;;;;4.15;0.70;;;;;;;21.45;50.87;101898.06;4936594;29;20055;-96
2023/07/18 08:35:11;;;;;;;3.00;0.87;;;;;;;21.70;52.11;101901.38;4950361;29;20023;-96
2023/07/18 08:37:36;;;;;;;1.73;0.90;;;;;;;21.94;51.00;101892.91;4961648;29;20019;-96
2023/07/18 08:40:04;;;;;;;1.40;0.70;;;;;;;22.33;52.14;101906.97;4961256;29;20015;-96
2023/07/18 08:42:31;;;;;;;1.85;0.80;;;;;;;22.48;50.72;101892.16;4961411;29;20020;-96
2023/07/18 08:44:57;;;;;;;2.38;0.80;;;;;;;22.66;51.58;101893.00;4960723;29;20030;-96
2023/07/18 08:47:23;;;;;;;2.28;0.95;;;;;;;22.78;50.71;101886.97;4961206;29;20043;-96
2023/07/18 08:49:49;;;;;;;3.37;0.97;;;;;;;22.55;49.51;101881.56;4961893;29;20039;-96
2023/07/18 08:52:14;;;;;;;3.83;0.90;;;;;;;22.42;49.04;101874.25;4943581;29;20063;-96
2023/07/18 08:54:40;;;;;;;1.23;0.60;;;;;;;22.61;46.03;101882.25;4940805;29;20024;-96
2023/07/18 08:57:06;;;;;;;0.77;0.60;;;;;;;22.67;47.21;101895.44;4942281;29;20169;-96
2023/07/18 08:59:32;;;;;;;1.98;0.70;;;;;;;22.84;47.88;101889.22;4941741;29;20024;-96
2023/07/18 09:01:57;;;;;;;1.67;0.63;;;;;;;22.61;45.51;101874.06;4942822;29;20110;-96
2023/07/18 09:04:23;;;;;;;2.83;0.80;;;;;;;22.72;46.62;101880.06;4944021;29;20020;-96
2023/07/18 09:06:54;;;;;;;2.83;0.70;;;;;;;22.67;47.07;101876.34;4946830;29;20034;-95
2023/07/18 09:09:27;;;;;;;1.92;0.75;;;;;;;22.64;47.22;101866.03;4956703;28;20095;-96
2023/07/18 09:11:57;;;;;;;1.10;0.80;;;;;;;22.59;44.57;101865.38;4955086;29;20075;-96
2023/07/18 09:14:27;;;;;;;1.40;0.80;;;;;;;22.78;44.89;101868.66;4956599;29;20504;-96
2023/07/18 09:16:55;;;;;;;2.27;0.87;;;;;;;22.68;44.59;101868.94;4954357;29;20279;-96
2023/07/18 09:19:35;;;;;;;1.20;0.75;;;;;;;22.84;45.77;101874.78;4950661;29;20031;-96
2023/07/18 09:22:01;;;;;;;2.17;0.90;;;;;;;23.09;43.08;101856.84;4952732;29;20130;-95
2023/07/18 09:24:31;;;;;;;2.13;0.80;;;;;;;23.61;43.80;101860.78;4950498;29;20036;-96
2023/07/18 09:26:56;;;;;;;1.03;0.67;;;;;;;23.90;42.06;101845.63;4949877;29;20279;-96
2023/07/18 09:29:22;;;;;;;1.45;0.68;;;;;;;24.15;42.67;101857.69;4947989;29;20082;-95
2023/07/18 09:31:49;;;;;;;0.77;0.70;;;;;;;24.07;40.87;101849.50;4945751;29;20051;-96
2023/07/18 09:34:19;;;;;;;1.75;0.85;;;;;;;23.81;41.23;101844.81;4945752;29;20047;-96
2023/07/18 09:36:59;;;;;;;1.17;0.82;;;;;;;23.70;42.01;101847.09;4951472;29;20134;-96
2023/07/18 09:39:26;;;;;;;1.40;1.10;;;;;;;24.08;42.21;101851.88;4954494;29;20121;-96
2023/07/18 09:41:52;;;;;;;2.17;1.05;;;;;;;24.67;40.66;101847.66;4954453;29;20030;-96
2023/07/18 09:44:19;;;;;;;1.83;1.00;;;;;;;25.26;39.92;101851.53;4953095;29;20040;-96
2023/07/18 09:46:44;;;;;;;0.90;0.80;;;;;;;25.44;38.78;101840.44;4947734;29;20027;-96
2023/07/18 09:49:10;;;;;;;1.90;0.87;;;;;;;25.35;39.59;101845.97;4960898;29;20102;-96
2023/07/18 09:51:37;;;;;;;1.73;1.00;;;;;;;25.15;39.34;101842.06;4943842;29;20461;-96
2023/07/18 09:54:05;;;;;;;2.40;0.80;;;;;;;24.88;39.77;101839.50;4942709;29;20090;-96
2023/07/18 09:56:34;;;;;;;3.10;1.10;;;;;;;24.71;40.29;101845.91;4946092;29;20391;-96
2023/07/18 09:59:04;;;;;;;1.93;1.13;;;;;;;24.60;39.53;101845.44;4943368;29;20348;-96
2023/07/18 10:01:32;;;;;;;1.65;0.88;;;;;;;24.35;40.55;101850.69;4942587;29;20038;-96
2023/07/18 10:03:58;;;;;;;2.03;0.90;;;;;;;24.28;41.81;101836.72;4940118;29;20020;-96
2023/07/18 10:06:27;;;;;;;2.22;1.00;;;;;;;24.46;42.01;101842.13;4942469;29;20471;-96
2023/07/18 10:08:53;;;;;;;2.65;0.82;;;;;;;24.42;42.00;101827.47;4945197;29;20051;-96
2023/07/18 10:11:19;;;;;;;2.25;1.13;;;;;;;24.49;40.85;101823.09;4947988;29;20023;-96
2023/07/18 10:14:07;;;;;;;2.17;0.97;;;;;;;24.61;42.97;101838.81;4946434;29;20112;-93
2023/07/18 10:16:35;;;;;;;2.30;1.10;;;;;;;24.69;41.34;101822.66;4945616;29;20283;-96
2023/07/18 10:19:19;;;;;;;2.15;0.90;;;;;;;24.44;41.67;101822.47;4946230;29;20023;-96
2023/07/18 10:21:49;;;;;;;1.48;0.90;;;;;;;24.58;40.01;101806.59;4949984;29;20032;-96
2023/07/18 10:24:24;;;;;;;2.45;0.95;;;;;;;24.99;40.94;101817.22;4943477;29;20032;-96
2023/07/18 10:27:08;;;;;;;2.65;0.95;;;;;;;25.12;39.82;101799.69;4942316;29;20046;-96
2023/07/18 10:29:38;;;;;;;3.00;1.13;;;;;;;25.34;39.95;101803.22;4945990;29;20420;-96
2023/07/18 10:32:05;;;;;;;1.20;1.10;;;;;;;25.62;39.31;101799.94;4950416;29;20043;-96
2023/07/18 10:34:37;;;;;;;7.95;1.15;;;;;;;25.00;38.04;101783.97;4953822;29;20023;-96
2023/07/18 10:37:07;;;;;;;2.60;1.15;;;;;;;24.78;41.28;101793.31;4947369;29;20026;-96
2023/07/18 10:39:38;;;;;;;2.90;0.90;;;;;;;24.89;41.05;101793.72;4944134;29;20039;-96
2023/07/18 10:42:05;;;;;;;1.63;1.03;;;;;;;24.93;41.56;101786.44;4942158;29;20286;-96
2023/07/18 10:44:31;;;;;;;1.50;0.90;;;;;;;25.13;40.92;101792.25;4944602;29;20059;-96
2023/07/18 10:46:56;;;;;;;2.67;1.13;;;;;;;25.13;40.32;101790.31;4942227;29;20036;-96
2023/07/18 10:49:29;;;;;;;12.67;1.50;;;;;;;25.08;41.33;101790.50;4942860;29;20034;-96
2023/07/18 10:51:55;;;;;;;3.50;1.00;;;;;;;25.03;40.19;101790.72;4941507;29;20032;-96
2023/07/18 10:54:20;;;;;;;2.33;0.98;;;;;;;24.75;41.38;101775.56;4942664;29;20183;-95
2023/07/18 10:56:48;;;;;;;2.33;0.90;;;;;;;25.14;41.94;101780.97;4928720;29;20516;-96
2023/07/18 10:59:15;;;;;;;1.08;0.80;;;;;;;25.24;40.40;101769.56;4949163;29;20035;-96
2023/07/18 11:01:40;;;;;;;1.80;1.10;;;;;;;25.12;39.67;101766.78;4955253;29;20031;-96
2023/07/18 11:04:07;;;;;;;3.73;1.23;;;;;;;25.15;39.68;101771.59;4950343;29;20031;-96
2023/07/18 11:06:34;;;;;;;1.35;1.00;;;;;;;25.15;39.83;101771.59;4938418;29;20015;-96
2023/07/18 11:08:59;;;;;;;1.70;1.20;;;;;;;25.16;39.57;101762.25;4949442;29;20531;-96
2023/07/18 11:11:26;;;;;;;2.75;1.00;;;;;;;25.33;40.91;101769.50;4945010;29;20066;-96
2023/07/18 11:13:54;;;;;;;1.90;0.97;;;;;;;25.43;41.05;101767.53;4948099;29;20035;-96
2023/07/18 11:21:40;;;;;;;2.45;1.20;;;;;;;25.68;40.05;101732.72;5554938;23;20079;-96
2023/07/18 11:24:06;;;;;;;1.35;1.08;;;;;;;25.89;38.82;101726.34;4930058;29;20080;-96
2023/07/18 11:26:34;;;;;;;3.78;1.27;;;;;;;25.59;38.57;101735.56;4945098;29;20034;-95
2023/07/18 11:29:04;;;;;;;1.67;0.90;;;;;;;25.61;37.62;101726.97;4928577;29;20059;-96
2023/07/18 11:31:38;;;;;;;3.40;1.15;;;;;;;25.71;38.62;101734.78;4945392;29;20105;-96
2023/07/18 11:34:05;;;;;;;1.88;1.10;;;;;;;25.98;37.22;101738.03;4943649;29;20099;-96
2023/07/18 11:36:32;;;;;;;3.90;1.10;;;;;;;25.91;37.60;101704.88;4944971;29;20028;-96